createdAt,value
2019-04-21T00:00:45.751Z,45.04
2019-04-21T00:02:52.103Z,45.56
2019-04-21T00:05:24.667Z,45.17
2019-04-21T00:07:31.853Z,44.80
2019-04-21T00:09:45.611Z,45.92
2019-04-21T00:11:47.219Z,46.23
2019-04-21T00:13:52.674Z,46.93
2019-04-21T00:15:54.933Z,48.39
2019-04-21T00:18:06.892Z,48.79
2019-04-21T00:20:26.159Z,49.12
2019-04-21T00:22:38.063Z,49.00
2019-04-21T00:24:46.126Z,49.56
2019-04-21T00:27:05.491Z,49.59
2019-04-21T00:29:21.039Z,50.45
2019-04-21T00:31:24.629Z,50.59
2019-04-21T00:33:22.544Z,50.14
2019-04-21T00:35:27.984Z,50.63
2019-04-21T00:37:58.472Z,50.71
2019-04-21T00:40:03.808Z,50.96
2019-04-21T00:42:15.157Z,51.15
2019-04-21T00:44:14.059Z,51.21
2019-04-21T00:46:30.830Z,50.79
2019-04-21T00:48:42.407Z,51.19
2019-04-21T00:51:14.199Z,51.30
2019-04-21T00:53:33.813Z,50.85
2019-04-21T00:56:03.372Z,51.59
2019-04-21T00:57:57.156Z,50.99
2019-04-21T01:00:06.942Z,51.19
2019-04-21T01:02:09.147Z,51.79
2019-04-21T01:04:23.488Z,51.66
2019-04-21T01:06:35.223Z,51.78
2019-04-21T01:08:42.678Z,52.35
2019-04-21T01:10:44.027Z,52.19
2019-04-21T01:13:05.695Z,51.42
2019-04-21T01:15:18.483Z,51.69
2019-04-21T01:17:21.823Z,51.72
2019-04-21T01:19:32.047Z,52.34
2019-04-21T01:21:18.016Z,52.76
2019-04-21T01:23:25.666Z,52.69
2019-04-21T01:25:41.542Z,52.40
2019-04-21T01:27:59.089Z,52.85
2019-04-21T01:30:14.406Z,51.96
2019-04-21T01:32:23.687Z,52.73
2019-04-21T01:34:34.543Z,52.64
2019-04-21T01:36:38.671Z,52.03
2019-04-21T01:38:58.683Z,52.44
2019-04-21T01:41:21.014Z,51.94
2019-04-21T01:43:07.610Z,53.37
2019-04-21T01:45:15.739Z,53.07
2019-04-21T01:47:26.219Z,52.61
2019-04-21T01:49:33.353Z,53.87
2019-04-21T01:51:59.722Z,53.73
2019-04-21T01:54:18.499Z,53.79
2019-04-21T01:56:41.848Z,54.71
2019-04-21T01:58:44.014Z,53.82
2019-04-21T02:00:56.874Z,55.24
2019-04-21T02:03:26.140Z,54.52
2019-04-21T02:05:31.298Z,55.37
2019-04-21T02:07:37.199Z,55.77
2019-04-21T02:09:47.400Z,56.32
2019-04-21T02:11:55.104Z,54.85
2019-04-21T02:14:17.583Z,55.35
2019-04-21T02:16:12.548Z,55.77
2019-04-21T02:18:24.303Z,56.22
2019-04-21T02:20:21.787Z,57.13
2019-04-21T02:22:57.490Z,56.17
2019-04-21T02:24:58.099Z,55.96
2019-04-21T02:26:59.540Z,56.76
2019-04-21T02:29:18.938Z,56.26
2019-04-21T02:31:33.213Z,57.26
2019-04-21T02:36:15.459Z,57.75
2019-04-21T02:38:02.074Z,57.75
2019-04-21T02:40:27.935Z,57.95
2019-04-21T02:42:15.703Z,58.51
2019-04-21T02:44:31.571Z,58.09
2019-04-21T02:48:49.033Z,58.09
2019-04-21T02:53:01.308Z,58.64
2019-04-21T02:55:08.198Z,58.23
2019-04-21T02:59:49.433Z,58.59
2019-04-21T03:02:24.946Z,58.12
2019-04-21T03:04:59.231Z,58.97
2019-04-21T03:09:29.612Z,58.18
2019-04-21T03:11:52.350Z,57.35
2019-04-21T03:18:13.274Z,57.27
2019-04-21T03:20:15.107Z,57.79
2019-04-21T03:24:29.380Z,56.35
2019-04-21T03:27:01.883Z,57.21
2019-04-21T03:31:25.183Z,58.15
2019-04-21T03:33:54.474Z,57.56
2019-04-21T03:35:44.069Z,57.73
2019-04-21T03:39:47.073Z,57.93
2019-04-21T03:41:59.190Z,56.95
2019-04-21T03:46:28.558Z,58.00
2019-04-21T03:48:17.342Z,56.85
2019-04-21T03:50:27.872Z,57.05
2019-04-21T03:52:40.250Z,57.15
2019-04-21T03:57:59.057Z,57.11
2019-04-21T04:00:03.627Z,57.84
2019-04-21T04:04:30.559Z,56.68
2019-04-21T04:11:24.828Z,58.82
2019-04-21T04:13:19.761Z,59.27
2019-04-21T04:15:31.206Z,58.80
2019-04-21T04:17:32.565Z,58.66
2019-04-21T04:19:44.615Z,58.94
2019-04-21T04:26:13.056Z,59.53
2019-04-21T04:28:33.672Z,58.12
2019-04-21T04:34:58.847Z,55.36
2019-04-21T04:37:12.391Z,55.77
2019-04-21T04:39:42.900Z,56.80
2019-04-21T04:42:04.980Z,56.26
2019-04-21T04:44:14.489Z,56.87
2019-04-21T04:46:18.327Z,57.63
2019-04-21T04:50:45.295Z,55.07
2019-04-21T04:57:16.128Z,55.09
2019-04-21T05:01:44.436Z,56.21
2019-04-21T05:03:47.393Z,54.29
2019-04-21T05:08:49.258Z,55.33
2019-04-21T05:10:56.940Z,55.55
2019-04-21T05:15:04.798Z,55.21
2019-04-21T05:17:19.618Z,55.92
2019-04-21T05:19:20.825Z,56.30
2019-04-21T05:23:31.365Z,55.04
2019-04-21T05:25:33.865Z,55.32
2019-04-21T05:27:42.845Z,57.16
2019-04-21T05:30:01.903Z,54.89
2019-04-21T05:32:22.915Z,53.73
2019-04-21T05:34:27.657Z,53.55
2019-04-21T05:36:56.729Z,52.79
2019-04-21T05:39:12.031Z,54.96
2019-04-21T05:41:17.551Z,55.38
2019-04-21T05:43:41.729Z,55.46
2019-04-21T05:45:50.146Z,53.30
2019-04-21T05:48:22.835Z,54.18
2019-04-21T05:50:30.499Z,55.49
2019-04-21T05:52:46.007Z,53.88
2019-04-21T05:55:10.964Z,55.46
2019-04-21T05:57:10.234Z,54.95
2019-04-21T05:59:25.046Z,54.53
2019-04-21T06:01:39.416Z,56.00
2019-04-21T06:03:47.668Z,54.24
2019-04-21T06:06:00.341Z,54.97
2019-04-21T06:08:09.911Z,54.52
2019-04-21T06:10:12.374Z,52.58
2019-04-21T06:12:29.822Z,53.17
2019-04-21T06:14:42.197Z,53.15
2019-04-21T06:16:54.604Z,53.96
2019-04-21T06:19:03.370Z,55.26
2019-04-21T06:21:06.927Z,52.85
2019-04-21T06:23:11.620Z,54.62
2019-04-21T06:27:34.446Z,54.79
2019-04-21T06:29:46.528Z,53.11
2019-04-21T06:32:16.732Z,53.47
2019-04-21T06:34:00.231Z,55.15
2019-04-21T06:36:36.366Z,54.71
2019-04-21T06:41:07.901Z,54.67
2019-04-21T06:43:25.902Z,53.16
2019-04-21T06:45:27.364Z,53.61
2019-04-21T06:47:36.113Z,55.12
2019-04-21T06:49:40.548Z,52.92
2019-04-21T06:51:48.176Z,53.21
2019-04-21T06:54:03.565Z,52.17
2019-04-21T06:56:12.138Z,51.56
2019-04-21T06:58:18.139Z,51.60
2019-04-21T07:00:27.363Z,51.18
2019-04-21T07:04:50.433Z,51.25
2019-04-21T07:07:16.193Z,52.35
2019-04-21T07:09:15.962Z,52.78
2019-04-21T07:11:14.864Z,52.03
2019-04-21T07:13:29.059Z,51.76
2019-04-21T07:15:39.924Z,51.02
2019-04-21T07:17:45.427Z,50.22
2019-04-21T07:19:55.949Z,51.19
2019-04-21T07:22:09.005Z,51.36
2019-04-21T07:24:20.164Z,50.83
2019-04-21T07:26:27.889Z,50.76
2019-04-21T07:28:31.742Z,50.83
2019-04-21T07:30:44.050Z,51.03
2019-04-21T07:32:57.399Z,50.65
2019-04-21T07:35:04.783Z,51.63
2019-04-21T07:37:06.578Z,50.75
2019-04-21T07:39:18.070Z,51.02
2019-04-21T07:41:18.511Z,50.83
2019-04-21T07:43:33.015Z,48.86
2019-04-21T07:45:40.169Z,49.43
2019-04-21T07:48:13.796Z,49.98
2019-04-21T07:50:26.455Z,49.36
2019-04-21T07:52:55.159Z,48.50
2019-04-21T07:54:57.191Z,49.12
2019-04-21T07:56:40.427Z,48.96
2019-04-21T07:59:06.963Z,47.96
2019-04-21T08:01:18.051Z,48.27
2019-04-21T08:03:39.854Z,48.98
2019-04-21T08:05:31.428Z,47.84
2019-04-21T08:09:51.330Z,48.87
2019-04-21T08:11:53.285Z,48.32
2019-04-21T08:14:13.951Z,48.21
2019-04-21T08:18:33.700Z,48.07
2019-04-21T08:20:35.130Z,47.76
2019-04-21T08:22:51.802Z,47.03
2019-04-21T08:24:59.363Z,47.21
2019-04-21T08:27:11.022Z,46.37
2019-04-21T08:29:20.674Z,46.12
2019-04-21T08:31:34.385Z,44.98
2019-04-21T08:33:41.486Z,45.00
2019-04-21T08:36:04.769Z,44.65
2019-04-21T08:37:55.674Z,44.76
2019-04-21T08:42:14.773Z,44.39
2019-04-21T08:44:26.239Z,43.63
2019-04-21T08:46:31.785Z,43.56
2019-04-21T08:48:42.310Z,43.54
2019-04-21T08:50:58.718Z,43.46
2019-04-21T08:53:04.050Z,43.17
2019-04-21T08:55:22.558Z,43.31
2019-04-21T08:57:46.419Z,42.84
2019-04-21T08:59:50.653Z,42.78
2019-04-21T09:02:18.234Z,42.01
2019-04-21T09:04:26.236Z,42.10
2019-04-21T09:06:41.701Z,42.21
2019-04-21T09:08:48.292Z,40.94
2019-04-21T09:10:56.070Z,41.23
2019-04-21T09:13:01.389Z,41.64
2019-04-21T09:15:17.071Z,40.87
2019-04-21T09:17:16.378Z,41.31
2019-04-21T09:19:38.715Z,41.42
2019-04-21T09:21:45.433Z,40.96
2019-04-21T09:23:52.312Z,38.87
2019-04-21T09:25:58.755Z,39.27
2019-04-21T09:28:04.002Z,39.03
2019-04-21T09:30:03.486Z,39.08
2019-04-21T09:32:15.754Z,38.97
2019-04-21T09:34:24.974Z,39.33
2019-04-21T09:36:36.212Z,38.86
2019-04-21T09:38:42.057Z,39.34
2019-04-21T09:40:51.326Z,39.18
2019-04-21T09:43:03.170Z,39.16
2019-04-21T09:45:09.993Z,38.51
2019-04-21T09:47:21.213Z,38.11
2019-04-21T09:49:31.123Z,38.17
2019-04-21T09:51:37.163Z,38.30
2019-04-21T09:53:56.164Z,37.91
2019-04-21T09:55:59.804Z,37.17
2019-04-21T09:58:16.132Z,37.00
2019-04-21T10:00:19.461Z,37.51
2019-04-21T10:02:34.162Z,35.75
2019-04-21T10:04:33.607Z,36.45
2019-04-21T10:06:41.588Z,36.11
2019-04-21T10:08:57.579Z,36.27
2019-04-21T10:10:59.291Z,35.43
2019-04-21T10:13:07.149Z,34.93
2019-04-21T10:15:16.449Z,35.60
2019-04-21T10:17:29.603Z,35.74
2019-04-21T10:19:37.571Z,34.80
2019-04-21T10:21:46.584Z,34.98
2019-04-21T10:23:55.188Z,34.45
2019-04-21T10:26:04.262Z,34.42
2019-04-21T10:28:12.861Z,33.41
2019-04-21T10:30:20.943Z,34.25
2019-04-21T10:32:30.107Z,34.42
2019-04-21T10:34:39.035Z,33.44
2019-04-21T10:36:47.069Z,33.90
2019-04-21T10:38:55.743Z,33.73
2019-04-21T10:41:05.390Z,34.16
2019-04-21T10:43:14.259Z,34.39
2019-04-21T10:45:23.145Z,32.97
2019-04-21T10:47:31.251Z,33.67
2019-04-21T10:49:38.805Z,33.26
2019-04-21T10:51:46.770Z,32.82
2019-04-21T10:53:55.946Z,32.34
2019-04-21T10:56:16.989Z,31.13
2019-04-21T10:58:18.243Z,31.46
2019-04-21T11:00:26.194Z,31.62
2019-04-21T11:02:43.357Z,31.94
2019-04-21T11:04:51.145Z,31.52
2019-04-21T11:07:06.792Z,32.25
2019-04-21T11:09:13.708Z,31.60
2019-04-21T11:11:21.800Z,33.04
2019-04-21T11:13:30.725Z,31.77
2019-04-21T11:15:39.244Z,32.31
2019-04-21T11:17:48.642Z,31.73
2019-04-21T11:19:57.020Z,32.08
2019-04-21T11:22:05.091Z,32.09
2019-04-21T11:24:14.324Z,31.53
2019-04-21T11:26:22.326Z,31.74
2019-04-21T11:28:31.183Z,31.58
2019-04-21T11:30:38.981Z,31.64
2019-04-21T11:32:48.246Z,31.47
2019-04-21T11:34:57.010Z,31.07
2019-04-21T11:37:08.055Z,30.43
2019-04-21T11:39:51.964Z,31.50
2019-04-21T11:41:54.043Z,31.35
2019-04-21T11:44:04.665Z,32.08
2019-04-21T11:46:12.709Z,30.82
2019-04-21T11:48:28.315Z,30.79
2019-04-21T11:50:37.102Z,31.74
2019-04-21T11:52:45.210Z,30.17
2019-04-21T11:54:53.189Z,31.12
2019-04-21T11:57:08.015Z,30.84
2019-04-21T11:59:12.104Z,30.79
2019-04-21T12:01:21.239Z,31.20
2019-04-21T12:03:29.449Z,31.09
2019-04-21T12:05:37.505Z,31.22
2019-04-21T12:07:45.369Z,31.45
2019-04-21T12:09:53.449Z,31.20
2019-04-21T12:12:01.250Z,31.18
2019-04-21T12:14:09.976Z,31.30
2019-04-21T12:16:18.986Z,31.07
2019-04-21T12:18:29.954Z,30.92
2019-04-21T12:20:37.625Z,31.03
2019-04-21T12:22:47.334Z,30.87
2019-04-21T12:24:55.544Z,29.74
2019-04-21T12:27:04.102Z,29.32
2019-04-21T12:29:14.516Z,29.26
2019-04-21T12:31:39.801Z,29.46
2019-04-21T12:34:01.945Z,29.37
2019-04-21T12:36:09.878Z,29.09
2019-04-21T12:38:29.886Z,28.92
2019-04-21T12:40:28.441Z,28.72
2019-04-21T12:42:38.727Z,28.20
2019-04-21T12:44:45.651Z,28.89
2019-04-21T12:46:54.049Z,28.95
2019-04-21T12:49:02.221Z,29.41
2019-04-21T12:51:10.269Z,29.60
2019-04-21T12:53:19.334Z,28.90
2019-04-21T12:55:32.419Z,29.21
2019-04-21T12:57:37.222Z,28.97
2019-04-21T12:59:45.132Z,28.87
2019-04-21T13:01:53.094Z,27.88
2019-04-21T13:04:01.832Z,29.04
2019-04-21T13:06:10.022Z,29.36
2019-04-21T13:08:17.817Z,28.32
2019-04-21T13:10:26.397Z,28.60
2019-04-21T13:12:35.267Z,28.22
2019-04-21T13:14:44.045Z,27.94
2019-04-21T13:16:52.025Z,29.09
2019-04-21T13:18:59.750Z,28.82
2019-04-21T13:21:07.767Z,28.90
2019-04-21T13:23:16.740Z,29.14
2019-04-21T13:25:25.600Z,28.61
2019-04-21T13:27:34.595Z,27.98
2019-04-21T13:29:43.948Z,28.78
2019-04-21T13:31:52.140Z,29.71
2019-04-21T13:34:02.032Z,29.11
2019-04-21T13:36:10.079Z,29.59
2019-04-21T13:38:27.217Z,30.08
2019-04-21T13:41:12.216Z,30.56
2019-04-21T13:43:08.110Z,29.56
2019-04-21T13:45:16.274Z,30.22
2019-04-21T13:47:24.922Z,31.03
2019-04-21T13:49:32.756Z,30.65
2019-04-21T13:51:41.605Z,30.59
2019-04-21T13:53:49.550Z,30.16
2019-04-21T13:55:58.467Z,30.33
2019-04-21T13:58:06.536Z,30.00
2019-04-21T14:00:17.251Z,29.94
2019-04-21T14:02:26.840Z,30.37
2019-04-21T14:04:35.654Z,30.05
2019-04-21T14:06:44.630Z,30.40
2019-04-21T14:08:52.639Z,30.06
2019-04-21T14:11:01.729Z,30.08
2019-04-21T14:13:09.614Z,29.15
2019-04-21T14:15:20.265Z,29.01
2019-04-21T14:17:28.834Z,29.27
2019-04-21T14:19:37.378Z,29.41
2019-04-21T14:21:48.142Z,29.83
2019-04-21T14:23:56.366Z,29.98
2019-04-21T14:26:06.443Z,30.03
2019-04-21T14:28:15.665Z,29.95
2019-04-21T14:30:24.326Z,30.21
2019-04-21T14:32:32.364Z,30.60
2019-04-21T14:34:41.875Z,31.25
2019-04-21T14:36:50.781Z,32.31
2019-04-21T14:38:58.782Z,37.13
2019-04-21T14:41:08.185Z,38.36
2019-04-21T14:43:16.516Z,39.69
2019-04-21T14:45:36.877Z,38.28
2019-04-21T14:48:03.274Z,37.86
2019-04-21T14:50:42.200Z,37.80
2019-04-21T14:53:11.757Z,37.11
2019-04-21T14:55:22.870Z,36.36
2019-04-21T14:57:31.532Z,38.26
2019-04-21T14:59:39.470Z,38.01
2019-04-21T15:01:47.517Z,37.07
2019-04-21T15:03:55.584Z,36.08
2019-04-21T15:06:03.686Z,36.70
2019-04-21T15:08:11.473Z,35.94
2019-04-21T15:10:24.321Z,36.26
2019-04-21T15:12:29.950Z,37.86
2019-04-21T15:14:38.091Z,36.67
2019-04-21T15:16:47.072Z,35.56
2019-04-21T15:18:55.009Z,34.49
2019-04-21T15:21:03.720Z,35.73
2019-04-21T15:23:12.482Z,35.01
2019-04-21T15:25:20.183Z,36.56
2019-04-21T15:27:37.455Z,35.37
2019-04-21T15:29:46.660Z,35.43
2019-04-21T15:31:54.854Z,35.28
2019-04-21T15:34:03.257Z,35.53
2019-04-21T15:36:11.382Z,35.28
2019-04-21T15:38:20.123Z,34.90
2019-04-21T15:40:37.457Z,35.10
2019-04-21T15:42:38.904Z,35.61
2019-04-21T15:44:48.465Z,36.52
2019-04-21T15:46:57.635Z,37.90
2019-04-21T15:49:06.911Z,38.83
2019-04-21T15:51:15.859Z,41.29
2019-04-21T15:53:25.657Z,41.17
2019-04-21T15:56:04.801Z,43.57
2019-04-21T15:58:30.451Z,42.24
2019-04-21T16:00:46.760Z,42.11
2019-04-21T16:02:54.890Z,42.77
2019-04-21T16:05:02.871Z,41.26
2019-04-21T16:07:11.950Z,40.33
2019-04-21T16:09:22.355Z,41.39
2019-04-21T16:11:29.111Z,41.46
2019-04-21T16:13:37.357Z,41.13
2019-04-21T16:15:46.305Z,39.61
2019-04-21T16:17:55.234Z,38.28
2019-04-21T16:20:04.094Z,39.83
2019-04-21T16:22:12.980Z,44.53
2019-04-21T16:24:21.301Z,40.52
2019-04-21T16:26:30.603Z,40.24
2019-04-21T16:28:39.481Z,40.38
2019-04-21T16:30:48.780Z,40.68
2019-04-21T16:32:56.997Z,40.48
2019-04-21T16:35:10.474Z,43.51
2019-04-21T16:37:15.320Z,45.19
2019-04-21T16:39:23.301Z,46.69
2019-04-21T16:41:32.103Z,47.08
2019-04-21T16:43:40.988Z,46.89
2019-04-21T16:45:49.094Z,47.37
2019-04-21T16:47:57.493Z,48.31
2019-04-21T16:50:06.118Z,50.10
2019-04-21T16:52:28.118Z,51.31
2019-04-21T16:54:35.921Z,51.65
2019-04-21T16:56:50.123Z,53.02
2019-04-21T16:59:28.902Z,54.95
2019-04-21T17:01:38.384Z,56.36
2019-04-21T17:03:46.490Z,56.45
2019-04-21T17:05:54.290Z,58.61
2019-04-21T17:08:02.171Z,59.71
2019-04-21T17:10:10.740Z,60.53
2019-04-21T17:12:20.091Z,61.60
2019-04-21T17:14:45.257Z,62.06
2019-04-21T17:17:03.079Z,61.94
2019-04-21T17:18:59.561Z,61.56
2019-04-21T17:21:00.978Z,62.34
2019-04-21T17:23:07.309Z,63.25
2019-04-21T17:25:16.202Z,62.50
2019-04-21T17:27:25.048Z,63.21
2019-04-21T17:29:34.475Z,63.14
2019-04-21T17:31:43.618Z,61.75
2019-04-21T17:33:57.430Z,62.89
2019-04-21T17:36:01.375Z,64.64
2019-04-21T17:38:09.940Z,63.67
2019-04-21T17:40:24.449Z,62.94
2019-04-21T17:42:42.975Z,64.82
2019-04-21T17:44:41.786Z,64.91
2019-04-21T17:46:56.305Z,62.87
2019-04-21T17:48:59.410Z,64.09
2019-04-21T17:51:25.964Z,62.09
2019-04-21T17:53:59.010Z,63.89
2019-04-21T17:56:33.828Z,61.02
2019-04-21T17:58:36.181Z,64.36
2019-04-21T18:02:59.215Z,62.98
2019-04-21T18:05:19.150Z,64.46
2019-04-21T18:07:31.663Z,64.16
2019-04-21T18:09:47.747Z,63.32
2019-04-21T18:11:56.812Z,61.50
2019-04-21T18:13:40.152Z,62.29
2019-04-21T18:16:01.593Z,62.91
2019-04-21T18:17:58.794Z,64.51
2019-04-21T18:20:07.921Z,63.14
2019-04-21T18:22:54.933Z,63.85
2019-04-21T18:25:10.537Z,62.10
2019-04-21T18:27:15.649Z,64.84
2019-04-21T18:29:23.596Z,64.05
2019-04-21T18:31:37.650Z,64.62
2019-04-21T18:34:04.933Z,63.24
2019-04-21T18:36:34.058Z,63.86
2019-04-21T18:39:04.123Z,63.21
2019-04-21T18:40:56.026Z,64.37
2019-04-21T18:43:44.965Z,61.64
2019-04-21T18:46:11.518Z,63.01
2019-04-21T18:48:27.437Z,63.34
2019-04-21T18:50:50.927Z,64.07
2019-04-21T18:53:09.988Z,63.57
2019-04-21T18:55:18.997Z,62.79
2019-04-21T18:57:30.924Z,63.38
2019-04-21T18:59:37.789Z,62.96
2019-04-21T19:01:49.839Z,62.51
2019-04-21T19:03:53.817Z,61.09
2019-04-21T19:06:08.766Z,62.65
2019-04-21T19:08:26.401Z,62.10
2019-04-21T19:10:40.673Z,62.73
2019-04-21T19:13:20.420Z,61.89
2019-04-21T19:14:55.007Z,63.88
2019-04-21T19:17:39.659Z,65.72
2019-04-21T19:19:41.362Z,65.77
2019-04-21T19:21:24.475Z,65.05
2019-04-21T19:24:08.516Z,65.59
2019-04-21T19:25:55.534Z,65.73
2019-04-21T19:28:03.257Z,67.21
2019-04-21T19:32:34.579Z,66.24
2019-04-21T19:34:22.313Z,69.81
2019-04-21T19:36:25.483Z,69.97
2019-04-21T19:38:46.791Z,71.30
2019-04-21T19:40:56.785Z,70.95
2019-04-21T19:43:03.612Z,71.95
2019-04-21T19:45:22.595Z,73.03
2019-04-21T19:47:41.079Z,72.23
2019-04-21T19:49:50.896Z,73.33
2019-04-21T19:51:50.405Z,73.61
2019-04-21T19:53:59.398Z,74.64
2019-04-21T19:56:00.132Z,74.55
2019-04-21T19:58:08.699Z,73.75
2019-04-21T20:00:19.187Z,73.37
2019-04-21T20:02:30.416Z,75.01
2019-04-21T20:04:43.867Z,75.33
2019-04-21T20:07:01.120Z,74.28
2019-04-21T20:09:17.733Z,72.63
2019-04-21T20:11:25.778Z,69.33
2019-04-21T20:13:49.098Z,71.06
2019-04-21T20:15:44.819Z,69.23
2019-04-21T20:17:54.096Z,68.48
2019-04-21T20:19:48.089Z,69.12
2019-04-21T20:21:56.943Z,70.59
2019-04-21T20:24:11.130Z,68.70
2019-04-21T20:26:17.448Z,72.04
2019-04-21T20:28:37.208Z,69.97
2019-04-21T20:30:58.991Z,73.42
2019-04-21T20:33:05.960Z,70.71
2019-04-21T20:35:18.268Z,71.40
2019-04-21T20:37:21.353Z,72.74
2019-04-21T20:39:22.589Z,72.69
2019-04-21T20:41:39.424Z,71.52
2019-04-21T20:43:53.820Z,73.86
2019-04-21T20:46:02.477Z,75.08
2019-04-21T20:47:55.743Z,73.76
2019-04-21T20:50:18.421Z,73.32
2019-04-21T20:52:35.560Z,71.33
2019-04-21T20:54:43.344Z,73.03
2019-04-21T20:56:49.732Z,73.80
2019-04-21T20:59:00.010Z,72.92
2019-04-21T21:01:25.420Z,71.96
2019-04-21T21:03:20.973Z,72.45
2019-04-21T21:05:27.307Z,74.29
2019-04-21T21:07:55.952Z,72.57
2019-04-21T21:09:56.185Z,71.17
2019-04-21T21:12:12.282Z,72.31
2019-04-21T21:14:14.598Z,73.04
2019-04-21T21:16:22.946Z,71.21
2019-04-21T21:18:48.705Z,71.88
2019-04-21T21:20:35.247Z,68.17
2019-04-21T21:22:46.595Z,71.52
2019-04-21T21:24:55.752Z,70.53
2019-04-21T21:27:05.931Z,72.63
2019-04-21T21:29:18.279Z,70.88
2019-04-21T21:31:30.676Z,69.96
2019-04-21T21:33:35.473Z,68.57
2019-04-21T21:35:39.528Z,70.55
2019-04-21T21:37:54.893Z,67.05
2019-04-21T21:40:10.128Z,68.24
2019-04-21T21:42:01.977Z,70.00
2019-04-21T21:44:12.767Z,67.68
2019-04-21T21:46:37.229Z,71.45
2019-04-21T21:48:40.644Z,70.05
2019-04-21T21:50:45.960Z,70.00
2019-04-21T21:52:55.293Z,72.71
2019-04-21T21:54:55.894Z,73.26
2019-04-21T21:57:04.842Z,71.84
2019-04-21T21:59:20.122Z,70.64
2019-04-21T22:01:31.894Z,72.08
2019-04-21T22:03:38.968Z,72.72
2019-04-21T22:05:48.893Z,71.74
2019-04-21T22:07:52.170Z,71.29
2019-04-21T22:10:00.129Z,70.52
2019-04-21T22:12:09.142Z,69.85
2019-04-21T22:14:25.838Z,70.01
2019-04-21T22:16:38.893Z,68.35
2019-04-21T22:19:03.526Z,69.31
2019-04-21T22:21:04.918Z,69.87
2019-04-21T22:23:02.056Z,71.77
2019-04-21T22:25:12.622Z,71.93
2019-04-21T22:27:16.868Z,72.26
2019-04-21T22:29:27.898Z,73.27
2019-04-21T22:31:38.920Z,73.06
2019-04-21T22:33:48.310Z,73.76
2019-04-21T22:36:02.071Z,73.72
2019-04-21T22:38:19.084Z,74.16
2019-04-21T22:40:25.309Z,74.50
2019-04-21T22:42:29.456Z,74.87
2019-04-21T22:44:34.354Z,74.56
2019-04-21T22:46:54.855Z,74.12
2019-04-21T22:48:55.961Z,72.76
2019-04-21T22:51:02.496Z,73.00
2019-04-21T22:53:12.372Z,73.58
2019-04-21T22:55:23.658Z,71.92
2019-04-21T22:57:36.490Z,70.28
2019-04-21T22:59:40.444Z,68.36
2019-04-21T23:01:51.835Z,69.02
2019-04-21T23:04:02.440Z,72.25
2019-04-21T23:06:17.466Z,71.18
2019-04-21T23:08:17.257Z,72.57
2019-04-21T23:10:25.858Z,69.87
2019-04-21T23:12:37.119Z,69.40
2019-04-21T23:14:53.417Z,69.99
2019-04-21T23:16:56.895Z,71.37
2019-04-21T23:19:22.574Z,70.44
2019-04-21T23:21:24.711Z,69.53
2019-04-21T23:23:42.711Z,69.04
2019-04-21T23:25:43.922Z,69.79
2019-04-21T23:27:57.397Z,68.28
2019-04-21T23:30:13.233Z,69.83
2019-04-21T23:32:15.953Z,69.72
2019-04-21T23:34:13.428Z,67.76
2019-04-21T23:36:23.074Z,65.87
2019-04-21T23:38:36.317Z,67.32
2019-04-21T23:40:39.804Z,67.51
2019-04-21T23:42:47.148Z,67.35
2019-04-21T23:44:58.000Z,67.07
2019-04-21T23:47:08.828Z,66.19
2019-04-21T23:49:27.122Z,66.80
2019-04-21T23:51:36.619Z,67.30
2019-04-21T23:53:33.344Z,68.33
2019-04-21T23:55:41.234Z,66.85
2019-04-21T23:57:50.710Z,69.52
2019-04-21T23:59:59.648Z,68.96
